sensor_id;sensor_type;location;lat;lon;timestamp;temperature;humidity
48648;DHT22;34437;-33.956;151.076;2023-04-25T00:00:17;23.20;73.10
48648;DHT22;34437;-33.956;151.076;2023-04-25T00:02:40;23.20;73.00
48648;DHT22;34437;-33.956;151.076;2023-04-25T00:05:03;23.20;72.80
48648;DHT22;34437;-33.956;151.076;2023-04-25T00:07:26;23.30;72.70
48648;DHT22;34437;-33.956;151.076;2023-04-25T00:09:48;23.30;72.70
48648;DHT22;34437;-33.956;151.076;2023-04-25T00:12:12;23.30;72.70
48648;DHT22;34437;-33.956;151.076;2023-04-25T00:14:35;23.30;72.80
48648;DHT22;34437;-33.956;151.076;2023-04-25T00:16:57;23.30;72.80
48648;DHT22;34437;-33.956;151.076;2023-04-25T00:19:20;23.30;71.90
48648;DHT22;34437;-33.956;151.076;2023-04-25T00:21:43;23.30;71.30
48648;DHT22;34437;-33.956;151.076;2023-04-25T00:24:07;23.30;70.80
48648;DHT22;34437;-33.956;151.076;2023-04-25T00:26:30;23.30;70.60
48648;DHT22;34437;-33.956;151.076;2023-04-25T00:28:52;23.30;70.70
48648;DHT22;34437;-33.956;151.076;2023-04-25T00:31:15;23.30;70.70
48648;DHT22;34437;-33.956;151.076;2023-04-25T00:33:37;23.30;70.70
48648;DHT22;34437;-33.956;151.076;2023-04-25T00:35:59;23.30;70.60
48648;DHT22;34437;-33.956;151.076;2023-04-25T00:38:22;23.30;70.50
48648;DHT22;34437;-33.956;151.076;2023-04-25T00:40:44;23.30;70.50
48648;DHT22;34437;-33.956;151.076;2023-04-25T00:43:07;23.30;70.30
48648;DHT22;34437;-33.956;151.076;2023-04-25T00:45:29;23.30;70.20
48648;DHT22;34437;-33.956;151.076;2023-04-25T00:47:52;23.30;70.20
48648;DHT22;34437;-33.956;151.076;2023-04-25T00:50:14;23.30;70.20
48648;DHT22;34437;-33.956;151.076;2023-04-25T00:52:40;23.30;70.20
48648;DHT22;34437;-33.956;151.076;2023-04-25T00:55:02;23.30;70.20
48648;DHT22;34437;-33.956;151.076;2023-04-25T00:57:26;23.30;70.10
48648;DHT22;34437;-33.956;151.076;2023-04-25T00:59:48;23.20;70.10
48648;DHT22;34437;-33.956;151.076;2023-04-25T01:02:13;23.20;70.00
48648;DHT22;34437;-33.956;151.076;2023-04-25T01:04:35;23.30;70.00
48648;DHT22;34437;-33.956;151.076;2023-04-25T01:06:58;23.30;69.90
48648;DHT22;34437;-33.956;151.076;2023-04-25T01:09:22;23.30;69.80
48648;DHT22;34437;-33.956;151.076;2023-04-25T01:11:45;23.30;69.70
48648;DHT22;34437;-33.956;151.076;2023-04-25T01:14:07;23.30;69.70
48648;DHT22;34437;-33.956;151.076;2023-04-25T01:16:31;23.30;69.60
48648;DHT22;34437;-33.956;151.076;2023-04-25T01:18:53;23.30;69.70
48648;DHT22;34437;-33.956;151.076;2023-04-25T01:21:16;23.30;69.60
48648;DHT22;34437;-33.956;151.076;2023-04-25T01:23:40;23.30;69.60
48648;DHT22;34437;-33.956;151.076;2023-04-25T01:26:03;23.30;69.60
48648;DHT22;34437;-33.956;151.076;2023-04-25T01:28:26;23.30;69.30
48648;DHT22;34437;-33.956;151.076;2023-04-25T01:30:49;23.30;69.50
48648;DHT22;34437;-33.956;151.076;2023-04-25T01:33:12;23.30;68.90
48648;DHT22;34437;-33.956;151.076;2023-04-25T01:35:36;23.30;69.20
48648;DHT22;34437;-33.956;151.076;2023-04-25T01:37:59;23.30;69.20
48648;DHT22;34437;-33.956;151.076;2023-04-25T01:40:22;23.30;69.20
48648;DHT22;34437;-33.956;151.076;2023-04-25T01:42:45;23.30;69.20
48648;DHT22;34437;-33.956;151.076;2023-04-25T01:45:08;23.30;69.20
48648;DHT22;34437;-33.956;151.076;2023-04-25T01:47:31;23.30;69.20
48648;DHT22;34437;-33.956;151.076;2023-04-25T01:49:53;23.30;69.20
48648;DHT22;34437;-33.956;151.076;2023-04-25T01:52:16;23.30;69.20
48648;DHT22;34437;-33.956;151.076;2023-04-25T01:54:38;23.30;69.10
48648;DHT22;34437;-33.956;151.076;2023-04-25T01:57:05;23.30;69.10
48648;DHT22;34437;-33.956;151.076;2023-04-25T01:59:27;23.30;69.00
48648;DHT22;34437;-33.956;151.076;2023-04-25T02:01:50;23.30;69.00
48648;DHT22;34437;-33.956;151.076;2023-04-25T02:04:12;23.30;69.00
48648;DHT22;34437;-33.956;151.076;2023-04-25T02:06:35;23.30;68.90
48648;DHT22;34437;-33.956;151.076;2023-04-25T02:08:57;23.30;68.90
48648;DHT22;34437;-33.956;151.076;2023-04-25T02:11:19;23.30;68.80
48648;DHT22;34437;-33.956;151.076;2023-04-25T02:13:42;23.40;68.90
48648;DHT22;34437;-33.956;151.076;2023-04-25T02:16:04;23.40;68.70
48648;DHT22;34437;-33.956;151.076;2023-04-25T02:18:27;23.40;68.70
48648;DHT22;34437;-33.956;151.076;2023-04-25T02:20:50;23.40;68.60
48648;DHT22;34437;-33.956;151.076;2023-04-25T02:23:12;23.40;68.50
48648;DHT22;34437;-33.956;151.076;2023-04-25T02:25:36;23.40;68.20
48648;DHT22;34437;-33.956;151.076;2023-04-25T02:27:59;23.40;68.60
48648;DHT22;34437;-33.956;151.076;2023-04-25T02:30:21;23.40;68.60
48648;DHT22;34437;-33.956;151.076;2023-04-25T02:32:44;23.40;68.60
48648;DHT22;34437;-33.956;151.076;2023-04-25T02:35:07;23.40;68.60
48648;DHT22;34437;-33.956;151.076;2023-04-25T02:37:33;23.40;68.60
48648;DHT22;34437;-33.956;151.076;2023-04-25T02:39:56;23.40;68.60
48648;DHT22;34437;-33.956;151.076;2023-04-25T02:42:18;23.40;68.60
48648;DHT22;34437;-33.956;151.076;2023-04-25T02:44:41;23.40;68.70
48648;DHT22;34437;-33.956;151.076;2023-04-25T02:47:03;23.40;68.60
48648;DHT22;34437;-33.956;151.076;2023-04-25T02:49:26;23.40;68.60
48648;DHT22;34437;-33.956;151.076;2023-04-25T02:51:48;23.40;68.60
48648;DHT22;34437;-33.956;151.076;2023-04-25T02:54:11;23.40;68.50
48648;DHT22;34437;-33.956;151.076;2023-04-25T02:56:33;23.40;68.40
48648;DHT22;34437;-33.956;151.076;2023-04-25T02:58:55;23.40;68.30
48648;DHT22;34437;-33.956;151.076;2023-04-25T03:01:18;23.50;68.20
48648;DHT22;34437;-33.956;151.076;2023-04-25T03:03:40;23.50;68.20
48648;DHT22;34437;-33.956;151.076;2023-04-25T03:06:03;23.50;68.10
48648;DHT22;34437;-33.956;151.076;2023-04-25T03:08:25;23.50;68.00
48648;DHT22;34437;-33.956;151.076;2023-04-25T03:10:51;23.50;68.10
48648;DHT22;34437;-33.956;151.076;2023-04-25T03:13:17;23.50;68.00
48648;DHT22;34437;-33.956;151.076;2023-04-25T03:15:39;23.50;68.00
48648;DHT22;34437;-33.956;151.076;2023-04-25T03:18:02;23.60;68.20
48648;DHT22;34437;-33.956;151.076;2023-04-25T03:20:24;23.50;68.20
48648;DHT22;34437;-33.956;151.076;2023-04-25T03:22:47;23.50;68.20
48648;DHT22;34437;-33.956;151.076;2023-04-25T03:25:09;23.50;68.20
48648;DHT22;34437;-33.956;151.076;2023-04-25T03:27:32;23.50;68.20
48648;DHT22;34437;-33.956;151.076;2023-04-25T03:29:54;23.50;68.20
48648;DHT22;34437;-33.956;151.076;2023-04-25T03:32:17;23.60;68.30
48648;DHT22;34437;-33.956;151.076;2023-04-25T03:34:39;23.50;68.30
48648;DHT22;34437;-33.956;151.076;2023-04-25T03:37:02;23.50;68.20
48648;DHT22;34437;-33.956;151.076;2023-04-25T03:39:24;23.50;68.20
48648;DHT22;34437;-33.956;151.076;2023-04-25T03:41:47;23.50;68.30
48648;DHT22;34437;-33.956;151.076;2023-04-25T03:44:09;23.50;68.30
48648;DHT22;34437;-33.956;151.076;2023-04-25T03:46:32;23.50;68.30
48648;DHT22;34437;-33.956;151.076;2023-04-25T03:48:54;23.50;68.30
48648;DHT22;34437;-33.956;151.076;2023-04-25T03:51:17;23.50;68.30
48648;DHT22;34437;-33.956;151.076;2023-04-25T03:53:39;23.50;68.30
48648;DHT22;34437;-33.956;151.076;2023-04-25T03:56:02;23.50;68.30
48648;DHT22;34437;-33.956;151.076;2023-04-25T03:58:24;23.50;68.30
48648;DHT22;34437;-33.956;151.076;2023-04-25T04:00:46;23.50;68.40
48648;DHT22;34437;-33.956;151.076;2023-04-25T04:03:09;23.50;68.30
48648;DHT22;34437;-33.956;151.076;2023-04-25T04:05:32;23.50;68.30
48648;DHT22;34437;-33.956;151.076;2023-04-25T04:07:55;23.50;68.30
48648;DHT22;34437;-33.956;151.076;2023-04-25T04:10:17;23.50;68.40
48648;DHT22;34437;-33.956;151.076;2023-04-25T04:12:40;23.50;68.40
48648;DHT22;34437;-33.956;151.076;2023-04-25T04:15:03;23.50;68.40
48648;DHT22;34437;-33.956;151.076;2023-04-25T04:17:26;23.60;68.40
48648;DHT22;34437;-33.956;151.076;2023-04-25T04:19:48;23.60;68.40
48648;DHT22;34437;-33.956;151.076;2023-04-25T04:22:11;23.60;68.40
48648;DHT22;34437;-33.956;151.076;2023-04-25T04:24:33;23.60;68.40
48648;DHT22;34437;-33.956;151.076;2023-04-25T04:26:56;23.60;68.30
48648;DHT22;34437;-33.956;151.076;2023-04-25T04:29:19;23.60;68.30
48648;DHT22;34437;-33.956;151.076;2023-04-25T04:31:44;23.60;68.20
48648;DHT22;34437;-33.956;151.076;2023-04-25T04:34:07;23.60;68.20
48648;DHT22;34437;-33.956;151.076;2023-04-25T04:36:29;23.60;68.10
48648;DHT22;34437;-33.956;151.076;2023-04-25T04:38:52;23.60;68.10
48648;DHT22;34437;-33.956;151.076;2023-04-25T04:41:15;23.60;68.20
48648;DHT22;34437;-33.956;151.076;2023-04-25T04:43:38;23.70;68.10
48648;DHT22;34437;-33.956;151.076;2023-04-25T04:46:01;23.70;67.90
48648;DHT22;34437;-33.956;151.076;2023-04-25T04:48:24;23.80;67.80
48648;DHT22;34437;-33.956;151.076;2023-04-25T04:50:46;23.80;67.80
48648;DHT22;34437;-33.956;151.076;2023-04-25T04:53:09;23.80;67.70
48648;DHT22;34437;-33.956;151.076;2023-04-25T04:55:32;23.80;67.70
48648;DHT22;34437;-33.956;151.076;2023-04-25T04:57:54;23.80;67.70
48648;DHT22;34437;-33.956;151.076;2023-04-25T05:00:17;23.80;67.80
48648;DHT22;34437;-33.956;151.076;2023-04-25T05:02:39;23.80;67.80
48648;DHT22;34437;-33.956;151.076;2023-04-25T05:05:02;23.70;67.80
48648;DHT22;34437;-33.956;151.076;2023-04-25T05:07:24;23.70;67.80
48648;DHT22;34437;-33.956;151.076;2023-04-25T05:09:47;23.70;67.90
48648;DHT22;34437;-33.956;151.076;2023-04-25T05:12:09;23.70;67.90
48648;DHT22;34437;-33.956;151.076;2023-04-25T05:14:31;23.70;67.90
48648;DHT22;34437;-33.956;151.076;2023-04-25T05:16:54;23.70;67.90
48648;DHT22;34437;-33.956;151.076;2023-04-25T05:19:16;23.70;67.90
48648;DHT22;34437;-33.956;151.076;2023-04-25T05:21:39;23.70;68.00
48648;DHT22;34437;-33.956;151.076;2023-04-25T05:24:02;23.70;68.00
48648;DHT22;34437;-33.956;151.076;2023-04-25T05:26:24;23.70;67.90
48648;DHT22;34437;-33.956;151.076;2023-04-25T05:28:47;23.60;67.90
48648;DHT22;34437;-33.956;151.076;2023-04-25T05:31:12;23.70;68.00
48648;DHT22;34437;-33.956;151.076;2023-04-25T05:33:34;23.60;68.00
48648;DHT22;34437;-33.956;151.076;2023-04-25T05:35:57;23.60;67.90
48648;DHT22;34437;-33.956;151.076;2023-04-25T05:38:19;23.70;68.00
48648;DHT22;34437;-33.956;151.076;2023-04-25T05:40:42;23.70;68.00
48648;DHT22;34437;-33.956;151.076;2023-04-25T05:43:04;23.70;68.00
48648;DHT22;34437;-33.956;151.076;2023-04-25T05:45:27;23.70;68.20
48648;DHT22;34437;-33.956;151.076;2023-04-25T05:47:49;23.80;68.10
48648;DHT22;34437;-33.956;151.076;2023-04-25T05:50:11;23.80;67.80
48648;DHT22;34437;-33.956;151.076;2023-04-25T05:52:34;23.90;67.70
48648;DHT22;34437;-33.956;151.076;2023-04-25T05:54:56;23.90;67.40
48648;DHT22;34437;-33.956;151.076;2023-04-25T05:57:23;24.00;67.20
48648;DHT22;34437;-33.956;151.076;2023-04-25T05:59:46;24.10;67.10
48648;DHT22;34437;-33.956;151.076;2023-04-25T06:02:08;24.10;66.70
48648;DHT22;34437;-33.956;151.076;2023-04-25T06:04:31;24.20;66.60
48648;DHT22;34437;-33.956;151.076;2023-04-25T06:06:53;24.30;66.40
48648;DHT22;34437;-33.956;151.076;2023-04-25T06:09:16;24.30;66.20
48648;DHT22;34437;-33.956;151.076;2023-04-25T06:11:39;24.40;66.60
48648;DHT22;34437;-33.956;151.076;2023-04-25T06:14:01;24.40;66.60
48648;DHT22;34437;-33.956;151.076;2023-04-25T06:16:24;24.40;66.30
48648;DHT22;34437;-33.956;151.076;2023-04-25T06:18:47;24.40;66.40
48648;DHT22;34437;-33.956;151.076;2023-04-25T06:21:10;24.40;66.20
48648;DHT22;34437;-33.956;151.076;2023-04-25T06:23:32;24.40;66.10
48648;DHT22;34437;-33.956;151.076;2023-04-25T06:25:55;24.30;65.90
48648;DHT22;34437;-33.956;151.076;2023-04-25T06:28:17;24.30;66.00
48648;DHT22;34437;-33.956;151.076;2023-04-25T06:30:41;24.30;66.10
48648;DHT22;34437;-33.956;151.076;2023-04-25T06:33:03;24.30;66.00
48648;DHT22;34437;-33.956;151.076;2023-04-25T06:35:26;24.30;66.00
48648;DHT22;34437;-33.956;151.076;2023-04-25T06:37:48;24.30;66.00
48648;DHT22;34437;-33.956;151.076;2023-04-25T06:40:11;24.30;65.90
48648;DHT22;34437;-33.956;151.076;2023-04-25T06:42:33;24.30;65.90
48648;DHT22;34437;-33.956;151.076;2023-04-25T06:44:56;24.40;65.90
48648;DHT22;34437;-33.956;151.076;2023-04-25T06:47:19;24.40;65.90
48648;DHT22;34437;-33.956;151.076;2023-04-25T06:49:41;24.40;65.70
48648;DHT22;34437;-33.956;151.076;2023-04-25T06:52:04;24.40;65.50
48648;DHT22;34437;-33.956;151.076;2023-04-25T06:54:26;24.40;65.40
48648;DHT22;34437;-33.956;151.076;2023-04-25T06:56:51;24.40;65.40
48648;DHT22;34437;-33.956;151.076;2023-04-25T06:59:14;24.40;65.40
48648;DHT22;34437;-33.956;151.076;2023-04-25T07:01:36;24.40;65.40
48648;DHT22;34437;-33.956;151.076;2023-04-25T07:03:59;24.40;65.50
48648;DHT22;34437;-33.956;151.076;2023-04-25T07:06:21;24.30;65.60
48648;DHT22;34437;-33.956;151.076;2023-04-25T07:08:44;24.20;65.70
48648;DHT22;34437;-33.956;151.076;2023-04-25T07:11:06;24.20;65.90
48648;DHT22;34437;-33.956;151.076;2023-04-25T07:13:29;24.10;66.00
48648;DHT22;34437;-33.956;151.076;2023-04-25T07:15:51;24.10;66.20
48648;DHT22;34437;-33.956;151.076;2023-04-25T07:18:14;24.00;66.30
48648;DHT22;34437;-33.956;151.076;2023-04-25T07:20:37;24.00;66.40
48648;DHT22;34437;-33.956;151.076;2023-04-25T07:22:59;24.00;66.50
48648;DHT22;34437;-33.956;151.076;2023-04-25T07:25:21;23.90;66.60
48648;DHT22;34437;-33.956;151.076;2023-04-25T07:27:44;23.90;66.60
48648;DHT22;34437;-33.956;151.076;2023-04-25T07:30:07;23.90;66.60
48648;DHT22;34437;-33.956;151.076;2023-04-25T07:32:30;23.90;66.70
48648;DHT22;34437;-33.956;151.076;2023-04-25T07:34:52;23.90;66.80
48648;DHT22;34437;-33.956;151.076;2023-04-25T07:37:15;23.80;66.80
48648;DHT22;34437;-33.956;151.076;2023-04-25T07:39:37;23.80;66.80
48648;DHT22;34437;-33.956;151.076;2023-04-25T07:42:00;23.80;67.00
48648;DHT22;34437;-33.956;151.076;2023-04-25T07:44:24;23.80;67.00
48648;DHT22;34437;-33.956;151.076;2023-04-25T07:46:47;23.80;67.10
48648;DHT22;34437;-33.956;151.076;2023-04-25T07:49:10;23.80;67.20
48648;DHT22;34437;-33.956;151.076;2023-04-25T07:51:32;23.70;67.20
48648;DHT22;34437;-33.956;151.076;2023-04-25T07:53:57;23.70;67.20
48648;DHT22;34437;-33.956;151.076;2023-04-25T07:56:20;23.70;67.30
48648;DHT22;34437;-33.956;151.076;2023-04-25T07:58:43;23.70;67.40
48648;DHT22;34437;-33.956;151.076;2023-04-25T08:01:05;23.60;67.30
48648;DHT22;34437;-33.956;151.076;2023-04-25T08:03:28;23.60;67.40
48648;DHT22;34437;-33.956;151.076;2023-04-25T08:05:51;23.60;67.40
48648;DHT22;34437;-33.956;151.076;2023-04-25T08:08:13;23.60;67.60
48648;DHT22;34437;-33.956;151.076;2023-04-25T08:10:36;23.60;67.60
48648;DHT22;34437;-33.956;151.076;2023-04-25T08:12:58;23.60;67.60
48648;DHT22;34437;-33.956;151.076;2023-04-25T08:15:21;23.60;67.70
48648;DHT22;34437;-33.956;151.076;2023-04-25T08:17:43;23.50;67.70
48648;DHT22;34437;-33.956;151.076;2023-04-25T08:20:07;23.50;67.70
48648;DHT22;34437;-33.956;151.076;2023-04-25T08:22:30;23.50;67.70
48648;DHT22;34437;-33.956;151.076;2023-04-25T08:24:53;23.50;67.80
48648;DHT22;34437;-33.956;151.076;2023-04-25T08:27:15;23.50;67.90
48648;DHT22;34437;-33.956;151.076;2023-04-25T08:29:38;23.50;67.90
48648;DHT22;34437;-33.956;151.076;2023-04-25T08:32:00;23.40;67.80
48648;DHT22;34437;-33.956;151.076;2023-04-25T08:34:23;23.40;67.90
48648;DHT22;34437;-33.956;151.076;2023-04-25T08:36:45;23.40;67.90
48648;DHT22;34437;-33.956;151.076;2023-04-25T08:39:07;23.40;67.90
48648;DHT22;34437;-33.956;151.076;2023-04-25T08:41:30;23.40;67.90
48648;DHT22;34437;-33.956;151.076;2023-04-25T08:43:53;23.40;67.90
48648;DHT22;34437;-33.956;151.076;2023-04-25T08:46:18;23.40;67.90
48648;DHT22;34437;-33.956;151.076;2023-04-25T08:48:43;23.30;67.90
48648;DHT22;34437;-33.956;151.076;2023-04-25T08:51:07;23.40;67.90
48648;DHT22;34437;-33.956;151.076;2023-04-25T08:53:32;23.40;67.90
48648;DHT22;34437;-33.956;151.076;2023-04-25T08:55:57;23.30;67.90
48648;DHT22;34437;-33.956;151.076;2023-04-25T08:58:20;23.30;67.90
48648;DHT22;34437;-33.956;151.076;2023-04-25T09:00:42;23.30;68.20
48648;DHT22;34437;-33.956;151.076;2023-04-25T09:03:05;23.30;67.90
48648;DHT22;34437;-33.956;151.076;2023-04-25T09:05:28;23.30;67.90
48648;DHT22;34437;-33.956;151.076;2023-04-25T09:07:51;23.30;67.90
48648;DHT22;34437;-33.956;151.076;2023-04-25T09:10:13;23.30;67.90
48648;DHT22;34437;-33.956;151.076;2023-04-25T09:12:36;23.30;67.90
48648;DHT22;34437;-33.956;151.076;2023-04-25T09:15:17;23.30;67.90
48648;DHT22;34437;-33.956;151.076;2023-04-25T09:17:42;23.30;67.90
48648;DHT22;34437;-33.956;151.076;2023-04-25T09:20:10;23.30;67.90
48648;DHT22;34437;-33.956;151.076;2023-04-25T09:22:32;23.20;67.80
48648;DHT22;34437;-33.956;151.076;2023-04-25T09:24:55;23.20;67.70
48648;DHT22;34437;-33.956;151.076;2023-04-25T09:27:21;23.20;67.70
48648;DHT22;34437;-33.956;151.076;2023-04-25T09:29:48;23.20;67.70
48648;DHT22;34437;-33.956;151.076;2023-04-25T09:32:22;23.20;67.80
48648;DHT22;34437;-33.956;151.076;2023-04-25T09:37:25;23.20;67.80
48648;DHT22;34437;-33.956;151.076;2023-04-25T09:39:55;23.20;67.90
48648;DHT22;34437;-33.956;151.076;2023-04-25T09:42:18;23.20;67.80
48648;DHT22;34437;-33.956;151.076;2023-04-25T09:44:45;23.10;67.50
48648;DHT22;34437;-33.956;151.076;2023-04-25T09:47:10;23.10;67.70
48648;DHT22;34437;-33.956;151.076;2023-04-25T09:49:34;23.10;67.80
48648;DHT22;34437;-33.956;151.076;2023-04-25T09:51:57;23.10;67.80
48648;DHT22;34437;-33.956;151.076;2023-04-25T09:54:20;23.10;67.70
48648;DHT22;34437;-33.956;151.076;2023-04-25T09:56:42;23.10;67.80
48648;DHT22;34437;-33.956;151.076;2023-04-25T09:59:06;23.10;67.80
48648;DHT22;34437;-33.956;151.076;2023-04-25T10:01:29;23.00;67.80
48648;DHT22;34437;-33.956;151.076;2023-04-25T10:03:53;23.00;67.70
48648;DHT22;34437;-33.956;151.076;2023-04-25T10:06:20;23.00;67.80
48648;DHT22;34437;-33.956;151.076;2023-04-25T10:08:44;23.00;67.70
48648;DHT22;34437;-33.956;151.076;2023-04-25T10:11:08;23.00;67.60
48648;DHT22;34437;-33.956;151.076;2023-04-25T10:13:31;23.00;67.80
48648;DHT22;34437;-33.956;151.076;2023-04-25T10:15:54;23.00;67.80
48648;DHT22;34437;-33.956;151.076;2023-04-25T10:18:18;23.00;67.60
48648;DHT22;34437;-33.956;151.076;2023-04-25T10:20:41;23.00;67.70
48648;DHT22;34437;-33.956;151.076;2023-04-25T10:23:09;22.90;67.60
48648;DHT22;34437;-33.956;151.076;2023-04-25T10:25:33;22.90;67.70
48648;DHT22;34437;-33.956;151.076;2023-04-25T10:27:56;22.90;67.60
48648;DHT22;34437;-33.956;151.076;2023-04-25T10:30:21;22.90;67.70
48648;DHT22;34437;-33.956;151.076;2023-04-25T10:32:44;22.90;67.60
48648;DHT22;34437;-33.956;151.076;2023-04-25T10:35:15;22.90;67.60
48648;DHT22;34437;-33.956;151.076;2023-04-25T10:37:37;22.90;67.60
48648;DHT22;34437;-33.956;151.076;2023-04-25T10:40:09;22.90;67.60
48648;DHT22;34437;-33.956;151.076;2023-04-25T10:42:31;22.90;67.60
48648;DHT22;34437;-33.956;151.076;2023-04-25T10:45:05;22.90;67.60
48648;DHT22;34437;-33.956;151.076;2023-04-25T10:47:38;22.90;67.70
48648;DHT22;34437;-33.956;151.076;2023-04-25T10:50:09;22.90;67.70
48648;DHT22;34437;-33.956;151.076;2023-04-25T10:52:33;22.80;67.60
48648;DHT22;34437;-33.956;151.076;2023-04-25T10:54:57;22.80;67.60
48648;DHT22;34437;-33.956;151.076;2023-04-25T10:57:42;22.90;67.60
48648;DHT22;34437;-33.956;151.076;2023-04-25T11:00:08;22.80;67.60
48648;DHT22;34437;-33.956;151.076;2023-04-25T11:02:40;22.80;67.50
48648;DHT22;34437;-33.956;151.076;2023-04-25T11:05:03;22.80;67.50
48648;DHT22;34437;-33.956;151.076;2023-04-25T11:07:43;22.80;67.60
48648;DHT22;34437;-33.956;151.076;2023-04-25T11:10:07;22.80;67.50
48648;DHT22;34437;-33.956;151.076;2023-04-25T11:12:30;22.80;67.60
48648;DHT22;34437;-33.956;151.076;2023-04-25T11:15:07;22.80;67.80
48648;DHT22;34437;-33.956;151.076;2023-04-25T11:17:30;22.80;68.00
48648;DHT22;34437;-33.956;151.076;2023-04-25T11:19:54;22.80;68.10
48648;DHT22;34437;-33.956;151.076;2023-04-25T11:22:18;22.80;68.20
48648;DHT22;34437;-33.956;151.076;2023-04-25T11:24:43;22.90;68.40
48648;DHT22;34437;-33.956;151.076;2023-04-25T11:27:06;22.90;68.30
48648;DHT22;34437;-33.956;151.076;2023-04-25T11:29:30;22.90;68.20
48648;DHT22;34437;-33.956;151.076;2023-04-25T11:31:52;22.90;68.10
48648;DHT22;34437;-33.956;151.076;2023-04-25T11:34:21;22.90;68.10
48648;DHT22;34437;-33.956;151.076;2023-04-25T11:36:45;22.90;68.40
48648;DHT22;34437;-33.956;151.076;2023-04-25T11:39:08;23.00;68.60
48648;DHT22;34437;-33.956;151.076;2023-04-25T11:41:31;23.00;68.60
48648;DHT22;34437;-33.956;151.076;2023-04-25T11:43:53;23.00;68.60
48648;DHT22;34437;-33.956;151.076;2023-04-25T11:46:16;23.00;68.40
48648;DHT22;34437;-33.956;151.076;2023-04-25T11:48:42;23.10;68.50
48648;DHT22;34437;-33.956;151.076;2023-04-25T11:51:05;23.10;68.60
48648;DHT22;34437;-33.956;151.076;2023-04-25T11:53:28;23.10;68.60
48648;DHT22;34437;-33.956;151.076;2023-04-25T11:55:50;23.10;68.60
48648;DHT22;34437;-33.956;151.076;2023-04-25T11:58:14;23.10;68.70
48648;DHT22;34437;-33.956;151.076;2023-04-25T12:00:36;23.10;68.60
48648;DHT22;34437;-33.956;151.076;2023-04-25T12:02:59;23.10;68.60
48648;DHT22;34437;-33.956;151.076;2023-04-25T12:05:30;23.10;68.60
48648;DHT22;34437;-33.956;151.076;2023-04-25T12:07:55;23.10;68.50
48648;DHT22;34437;-33.956;151.076;2023-04-25T12:10:20;23.20;68.40
48648;DHT22;34437;-33.956;151.076;2023-04-25T12:12:44;23.20;68.50
48648;DHT22;34437;-33.956;151.076;2023-04-25T12:15:14;23.20;68.50
48648;DHT22;34437;-33.956;151.076;2023-04-25T12:17:47;23.20;68.30
48648;DHT22;34437;-33.956;151.076;2023-04-25T12:20:15;23.20;68.30
48648;DHT22;34437;-33.956;151.076;2023-04-25T12:22:39;23.20;68.30
48648;DHT22;34437;-33.956;151.076;2023-04-25T12:25:03;23.20;68.10
48648;DHT22;34437;-33.956;151.076;2023-04-25T12:27:26;23.30;68.10
48648;DHT22;34437;-33.956;151.076;2023-04-25T12:29:54;23.30;68.20
48648;DHT22;34437;-33.956;151.076;2023-04-25T12:32:17;23.30;68.10
48648;DHT22;34437;-33.956;151.076;2023-04-25T12:34:40;23.30;68.00
48648;DHT22;34437;-33.956;151.076;2023-04-25T12:37:03;23.30;68.00
48648;DHT22;34437;-33.956;151.076;2023-04-25T12:39:27;23.30;68.00
48648;DHT22;34437;-33.956;151.076;2023-04-25T12:41:51;23.30;68.00
48648;DHT22;34437;-33.956;151.076;2023-04-25T12:44:18;23.30;68.50
48648;DHT22;34437;-33.956;151.076;2023-04-25T12:46:42;23.30;67.50
48648;DHT22;34437;-33.956;151.076;2023-04-25T12:49:05;23.30;66.60
48648;DHT22;34437;-33.956;151.076;2023-04-25T12:51:29;23.30;66.30
48648;DHT22;34437;-33.956;151.076;2023-04-25T12:53:52;23.20;66.20
48648;DHT22;34437;-33.956;151.076;2023-04-25T12:56:14;23.20;66.20
48648;DHT22;34437;-33.956;151.076;2023-04-25T12:58:37;23.20;66.90
48648;DHT22;34437;-33.956;151.076;2023-04-25T13:00:59;23.20;67.10
48648;DHT22;34437;-33.956;151.076;2023-04-25T13:03:22;23.20;67.60
48648;DHT22;34437;-33.956;151.076;2023-04-25T13:05:45;23.20;67.60
48648;DHT22;34437;-33.956;151.076;2023-04-25T13:08:08;23.20;67.60
48648;DHT22;34437;-33.956;151.076;2023-04-25T13:10:31;23.20;67.70
48648;DHT22;34437;-33.956;151.076;2023-04-25T13:12:55;23.20;67.80
48648;DHT22;34437;-33.956;151.076;2023-04-25T13:15:18;23.20;67.70
48648;DHT22;34437;-33.956;151.076;2023-04-25T13:17:41;23.20;67.80
48648;DHT22;34437;-33.956;151.076;2023-04-25T13:20:07;23.20;67.90
48648;DHT22;34437;-33.956;151.076;2023-04-25T13:22:32;23.10;67.80
48648;DHT22;34437;-33.956;151.076;2023-04-25T13:24:55;23.10;67.90
48648;DHT22;34437;-33.956;151.076;2023-04-25T13:27:18;23.10;68.00
48648;DHT22;34437;-33.956;151.076;2023-04-25T13:29:41;23.10;68.00
48648;DHT22;34437;-33.956;151.076;2023-04-25T13:32:03;23.10;68.00
48648;DHT22;34437;-33.956;151.076;2023-04-25T13:34:26;23.10;67.90
48648;DHT22;34437;-33.956;151.076;2023-04-25T13:36:49;23.10;67.90
48648;DHT22;34437;-33.956;151.076;2023-04-25T13:39:11;23.10;68.70
48648;DHT22;34437;-33.956;151.076;2023-04-25T13:41:34;23.10;68.10
48648;DHT22;34437;-33.956;151.076;2023-04-25T13:43:56;23.00;67.90
48648;DHT22;34437;-33.956;151.076;2023-04-25T13:46:19;23.00;67.90
48648;DHT22;34437;-33.956;151.076;2023-04-25T13:48:41;23.00;68.00
48648;DHT22;34437;-33.956;151.076;2023-04-25T13:51:08;23.00;67.90
48648;DHT22;34437;-33.956;151.076;2023-04-25T13:53:30;23.00;67.90
48648;DHT22;34437;-33.956;151.076;2023-04-25T13:55:53;23.00;68.00
48648;DHT22;34437;-33.956;151.076;2023-04-25T13:58:15;23.00;67.90
48648;DHT22;34437;-33.956;151.076;2023-04-25T14:00:38;23.00;68.00
48648;DHT22;34437;-33.956;151.076;2023-04-25T14:03:02;22.90;68.60
48648;DHT22;34437;-33.956;151.076;2023-04-25T14:05:26;22.90;68.00
48648;DHT22;34437;-33.956;151.076;2023-04-25T14:07:48;22.90;68.00
48648;DHT22;34437;-33.956;151.076;2023-04-25T14:10:12;22.90;68.00
48648;DHT22;34437;-33.956;151.076;2023-04-25T14:12:34;22.90;68.00
48648;DHT22;34437;-33.956;151.076;2023-04-25T14:14:56;22.90;68.00
48648;DHT22;34437;-33.956;151.076;2023-04-25T14:17:19;22.80;68.20
48648;DHT22;34437;-33.956;151.076;2023-04-25T14:19:42;22.80;68.10
48648;DHT22;34437;-33.956;151.076;2023-04-25T14:22:07;22.80;68.00
48648;DHT22;34437;-33.956;151.076;2023-04-25T14:24:29;22.80;68.20
48648;DHT22;34437;-33.956;151.076;2023-04-25T14:26:52;22.80;68.20